메인 페이지
METAR-TAF:

METAR-TAF

공항 :

Mammoth Yosemite Airport

Mammoth Lakes, 캘리포니아, 미국

위도: 37-37N, 경도: 118-50W, 고도: 2173m

현재 날씨관측

예보는 26분 전, 20:55시(UTC)에 발표되었습니다.
남동6kt, 순간 최대 풍속 15kt
온도 28°C
습도 11%
기압 1023 hPa
시정: 16.1km
맑음

METAR: KMMH 132055Z AUTO 13006G15KT 10SM CLR 28/M05 A3020 RMK AO2 T02841054

시각: 14:21 (21:21 UTC)

예보

예보는 4 시간 1분 전, 17:20시(UTC)에 발표되었습니다.
예보 대상 시간: 13일 18시부터 14일 18시까지 (UTC)
동남동8kt, 순간 최대 풍속 17kt
시정: 10km
고도 10000ft 상공 구름 조금
13일 2300시부터 (UTC)
13kt, 순간 최대 풍속 22kt
시정: 10km
고도 7000ft 상공 구름 보통
고도 12000ft 상공 구름 많음
시계 내 소나기
14일 0300시부터 (UTC)
서북서7kt
시정: 10km
고도 15000ft 상공 구름 조금
고도 25000ft 상공 구름 보통

TAF: KMMH 131720Z 1318/1418 12008G17KT P6SM FEW100 FM132300 26013G22KT P6SM VCSH SCT070 BKN120 FM140300 30007KT P6SM FEW150 SCT250

4,000개 이상의 공항 관측 자료 및 예보 (METAR 및 TAF 보고).

지도상에서 검색 가능한 기상관측소가 노란 점과 빨간 점으로 표시되어 있습니다.

기상관측소 명을 보려면 표시 위로 마우스를 이동하세요.

날씨 관측과 예보를 보려면 클릭하세요.

지도 변경 : 확대하려면 엑스 표시가 있는 녹색 버튼, 축소하려면 빼기 표시가 있는 녹색 버튼, 다음 페이지의 지도를 보려면 녹색 화살표를 클릭하세요.


METAR-TAF: